VTCC/CNX METAR and TAF weather

Enter ICAO airport designator
Station Type Date Time Source
VTCC METAR 2024/07/15 20:30 UTC NOAA

VTCC 152030Z 20004KT 9999 SCT035 27/23 Q1005 NOSIG


Station Type Date Time Source
VTCC Decoded METAR 2024/07/15 20:30 UTC NOAA

Chiang Mai, Thailand (VTCC) 18-47N 098-59E 314M
Jul 15, 2024 - 04:30 PM EDT / 2024.07.15 2030 UTC
Wind: from the SSW (200 degrees) at 5 MPH (4 KT):0
Visibility: greater than 7 mile(s):0
Sky conditions: partly cloudy
Temperature: 80 F (27 C)
Dew Point: 73 F (23 C)
Relative Humidity: 78%
Pressure (altimeter): 29.68 in. Hg (1005 hPa)
ob: VTCC 152030Z 20004KT 9999 SCT035 27/23 Q1005 NOSIG
cycle: 20

Station Type Date Time Source
VTCC TAF 2024/07/15 18:36 UTC NOAA